sensor_id;sensor_type;location;lat;lon;timestamp;temperature;humidity
25718;DHT22;13574;52.040;5.692;2023-04-03T00:01:04;7.60;99.90
25718;DHT22;13574;52.040;5.692;2023-04-03T00:03:30;7.30;99.90
25718;DHT22;13574;52.040;5.692;2023-04-03T00:05:56;7.40;99.90
25718;DHT22;13574;52.040;5.692;2023-04-03T00:08:22;7.50;99.90
25718;DHT22;13574;52.040;5.692;2023-04-03T00:10:47;7.70;99.90
25718;DHT22;13574;52.040;5.692;2023-04-03T00:13:13;7.80;99.90
25718;DHT22;13574;52.040;5.692;2023-04-03T00:15:40;7.90;99.90
25718;DHT22;13574;52.040;5.692;2023-04-03T00:18:06;7.80;99.90
25718;DHT22;13574;52.040;5.692;2023-04-03T00:20:32;7.70;99.90
25718;DHT22;13574;52.040;5.692;2023-04-03T00:22:58;7.70;99.90
25718;DHT22;13574;52.040;5.692;2023-04-03T00:25:24;7.60;99.90
25718;DHT22;13574;52.040;5.692;2023-04-03T00:27:50;7.50;99.90
25718;DHT22;13574;52.040;5.692;2023-04-03T00:30:18;7.50;99.90
25718;DHT22;13574;52.040;5.692;2023-04-03T00:32:44;7.30;99.90
25718;DHT22;13574;52.040;5.692;2023-04-03T00:35:10;7.30;99.90
25718;DHT22;13574;52.040;5.692;2023-04-03T00:37:36;7.30;99.90
25718;DHT22;13574;52.040;5.692;2023-04-03T00:40:02;7.00;99.90
25718;DHT22;13574;52.040;5.692;2023-04-03T00:42:28;7.10;99.90
25718;DHT22;13574;52.040;5.692;2023-04-03T00:47:23;7.00;99.90
25718;DHT22;13574;52.040;5.692;2023-04-03T00:49:50;7.10;99.90
25718;DHT22;13574;52.040;5.692;2023-04-03T00:52:20;7.20;99.90
25718;DHT22;13574;52.040;5.692;2023-04-03T00:54:47;7.10;99.90
25718;DHT22;13574;52.040;5.692;2023-04-03T00:57:15;6.80;99.90
25718;DHT22;13574;52.040;5.692;2023-04-03T00:59:46;6.80;99.90
25718;DHT22;13574;52.040;5.692;2023-04-03T01:02:14;7.00;99.90
25718;DHT22;13574;52.040;5.692;2023-04-03T01:04:42;7.10;99.90
25718;DHT22;13574;52.040;5.692;2023-04-03T01:07:21;7.10;99.90
25718;DHT22;13574;52.040;5.692;2023-04-03T01:09:48;7.20;99.90
25718;DHT22;13574;52.040;5.692;2023-04-03T01:12:22;7.10;99.90
25718;DHT22;13574;52.040;5.692;2023-04-03T01:15:06;7.00;99.90
25718;DHT22;13574;52.040;5.692;2023-04-03T01:25:43;7.00;99.90
25718;DHT22;13574;52.040;5.692;2023-04-03T01:28:15;7.00;99.90
25718;DHT22;13574;52.040;5.692;2023-04-03T01:33:45;7.10;99.90
25718;DHT22;13574;52.040;5.692;2023-04-03T01:36:15;7.10;99.90
25718;DHT22;13574;52.040;5.692;2023-04-03T01:38:41;6.90;99.90
25718;DHT22;13574;52.040;5.692;2023-04-03T01:41:07;7.00;99.90
25718;DHT22;13574;52.040;5.692;2023-04-03T01:43:33;7.10;99.90
25718;DHT22;13574;52.040;5.692;2023-04-03T01:45:58;6.90;99.90
25718;DHT22;13574;52.040;5.692;2023-04-03T01:48:24;7.00;99.90
25718;DHT22;13574;52.040;5.692;2023-04-03T01:50:49;7.10;99.90
25718;DHT22;13574;52.040;5.692;2023-04-03T01:53:15;7.10;99.90
25718;DHT22;13574;52.040;5.692;2023-04-03T01:55:41;6.90;99.90
25718;DHT22;13574;52.040;5.692;2023-04-03T01:58:07;7.10;99.90
25718;DHT22;13574;52.040;5.692;2023-04-03T02:00:32;7.00;99.90
25718;DHT22;13574;52.040;5.692;2023-04-03T02:02:58;6.80;99.90
25718;DHT22;13574;52.040;5.692;2023-04-03T02:05:23;6.90;99.90
25718;DHT22;13574;52.040;5.692;2023-04-03T02:07:49;6.80;99.90
25718;DHT22;13574;52.040;5.692;2023-04-03T02:10:15;6.60;99.90
25718;DHT22;13574;52.040;5.692;2023-04-03T02:12:41;6.50;99.90
25718;DHT22;13574;52.040;5.692;2023-04-03T02:15:07;6.60;99.90
25718;DHT22;13574;52.040;5.692;2023-04-03T02:17:32;6.40;99.90
25718;DHT22;13574;52.040;5.692;2023-04-03T02:19:58;6.50;99.90
25718;DHT22;13574;52.040;5.692;2023-04-03T02:22:23;6.50;99.90
25718;DHT22;13574;52.040;5.692;2023-04-03T02:24:49;6.40;99.90
25718;DHT22;13574;52.040;5.692;2023-04-03T02:27:15;6.30;99.90
25718;DHT22;13574;52.040;5.692;2023-04-03T02:29:41;6.30;99.90
25718;DHT22;13574;52.040;5.692;2023-04-03T02:32:07;6.20;99.90
25718;DHT22;13574;52.040;5.692;2023-04-03T02:34:32;6.20;99.90
25718;DHT22;13574;52.040;5.692;2023-04-03T02:36:58;5.80;99.90
25718;DHT22;13574;52.040;5.692;2023-04-03T02:39:23;5.70;99.90
25718;DHT22;13574;52.040;5.692;2023-04-03T02:41:49;5.50;99.90
25718;DHT22;13574;52.040;5.692;2023-04-03T02:44:15;5.70;99.90
25718;DHT22;13574;52.040;5.692;2023-04-03T02:46:40;5.70;99.90
25718;DHT22;13574;52.040;5.692;2023-04-03T02:49:06;5.70;99.90
25718;DHT22;13574;52.040;5.692;2023-04-03T02:51:32;5.60;99.90
25718;DHT22;13574;52.040;5.692;2023-04-03T02:53:57;5.60;99.90
25718;DHT22;13574;52.040;5.692;2023-04-03T02:56:23;5.70;99.90
25718;DHT22;13574;52.040;5.692;2023-04-03T02:58:49;5.50;99.90
25718;DHT22;13574;52.040;5.692;2023-04-03T03:01:15;5.70;99.90
25718;DHT22;13574;52.040;5.692;2023-04-03T03:03:40;5.60;99.90
25718;DHT22;13574;52.040;5.692;2023-04-03T03:06:11;5.60;99.90
25718;DHT22;13574;52.040;5.692;2023-04-03T03:08:37;5.50;99.90
25718;DHT22;13574;52.040;5.692;2023-04-03T03:11:03;5.50;99.90
25718;DHT22;13574;52.040;5.692;2023-04-03T03:13:29;5.60;99.90
25718;DHT22;13574;52.040;5.692;2023-04-03T03:15:55;5.50;99.90
25718;DHT22;13574;52.040;5.692;2023-04-03T03:18:21;5.70;99.90
25718;DHT22;13574;52.040;5.692;2023-04-03T03:20:51;5.70;99.90
25718;DHT22;13574;52.040;5.692;2023-04-03T03:23:17;5.60;99.90
25718;DHT22;13574;52.040;5.692;2023-04-03T03:25:43;5.60;99.90
25718;DHT22;13574;52.040;5.692;2023-04-03T03:28:08;5.40;99.90
25718;DHT22;13574;52.040;5.692;2023-04-03T03:30:34;5.70;99.90
25718;DHT22;13574;52.040;5.692;2023-04-03T03:33:01;5.80;99.90
25718;DHT22;13574;52.040;5.692;2023-04-03T03:35:26;5.90;99.90
25718;DHT22;13574;52.040;5.692;2023-04-03T03:37:52;5.90;99.90
25718;DHT22;13574;52.040;5.692;2023-04-03T03:40:18;6.10;99.90
25718;DHT22;13574;52.040;5.692;2023-04-03T03:42:43;6.10;99.90
25718;DHT22;13574;52.040;5.692;2023-04-03T03:45:09;5.80;99.90
25718;DHT22;13574;52.040;5.692;2023-04-03T03:47:35;6.00;99.90
25718;DHT22;13574;52.040;5.692;2023-04-03T03:50:01;6.00;99.90
25718;DHT22;13574;52.040;5.692;2023-04-03T03:52:27;5.90;99.90
25718;DHT22;13574;52.040;5.692;2023-04-03T03:54:52;6.10;99.90
25718;DHT22;13574;52.040;5.692;2023-04-03T03:57:18;6.10;99.90
25718;DHT22;13574;52.040;5.692;2023-04-03T03:59:44;6.20;99.90
25718;DHT22;13574;52.040;5.692;2023-04-03T04:02:10;6.10;99.90
25718;DHT22;13574;52.040;5.692;2023-04-03T04:04:36;5.90;99.90
25718;DHT22;13574;52.040;5.692;2023-04-03T04:07:02;5.80;99.90
25718;DHT22;13574;52.040;5.692;2023-04-03T04:09:28;5.90;99.90
25718;DHT22;13574;52.040;5.692;2023-04-03T04:11:54;5.80;99.90
25718;DHT22;13574;52.040;5.692;2023-04-03T04:14:19;5.80;99.90
25718;DHT22;13574;52.040;5.692;2023-04-03T04:16:48;5.90;99.90
25718;DHT22;13574;52.040;5.692;2023-04-03T04:19:14;5.90;99.90
25718;DHT22;13574;52.040;5.692;2023-04-03T04:21:40;5.90;99.90
25718;DHT22;13574;52.040;5.692;2023-04-03T04:24:07;5.90;99.90
25718;DHT22;13574;52.040;5.692;2023-04-03T04:26:33;5.80;99.90
25718;DHT22;13574;52.040;5.692;2023-04-03T04:28:58;5.80;99.90
25718;DHT22;13574;52.040;5.692;2023-04-03T04:31:24;5.80;99.90
25718;DHT22;13574;52.040;5.692;2023-04-03T04:33:50;5.80;99.90
25718;DHT22;13574;52.040;5.692;2023-04-03T04:36:15;5.90;99.90
25718;DHT22;13574;52.040;5.692;2023-04-03T04:38:41;5.90;99.90
25718;DHT22;13574;52.040;5.692;2023-04-03T04:41:07;5.70;99.90
25718;DHT22;13574;52.040;5.692;2023-04-03T04:43:33;5.70;99.90
25718;DHT22;13574;52.040;5.692;2023-04-03T04:46:08;5.60;99.90
25718;DHT22;13574;52.040;5.692;2023-04-03T04:48:35;5.50;99.90
25718;DHT22;13574;52.040;5.692;2023-04-03T04:51:02;5.40;99.90
25718;DHT22;13574;52.040;5.692;2023-04-03T04:53:27;5.40;99.90
25718;DHT22;13574;52.040;5.692;2023-04-03T04:55:53;5.40;99.90
25718;DHT22;13574;52.040;5.692;2023-04-03T04:58:19;5.30;99.90
25718;DHT22;13574;52.040;5.692;2023-04-03T05:00:45;5.10;99.90
25718;DHT22;13574;52.040;5.692;2023-04-03T05:03:11;5.00;99.90
25718;DHT22;13574;52.040;5.692;2023-04-03T05:05:39;5.10;99.90
25718;DHT22;13574;52.040;5.692;2023-04-03T05:08:05;5.00;99.90
25718;DHT22;13574;52.040;5.692;2023-04-03T05:10:34;5.00;99.90
25718;DHT22;13574;52.040;5.692;2023-04-03T05:13:00;5.00;99.90
25718;DHT22;13574;52.040;5.692;2023-04-03T05:15:26;5.10;99.90
25718;DHT22;13574;52.040;5.692;2023-04-03T05:17:51;5.20;99.90
25718;DHT22;13574;52.040;5.692;2023-04-03T05:20:17;5.50;99.90
25718;DHT22;13574;52.040;5.692;2023-04-03T05:22:43;5.30;99.90
25718;DHT22;13574;52.040;5.692;2023-04-03T05:25:09;5.40;99.90
25718;DHT22;13574;52.040;5.692;2023-04-03T05:27:35;5.50;99.90
25718;DHT22;13574;52.040;5.692;2023-04-03T05:30:01;5.50;99.90
25718;DHT22;13574;52.040;5.692;2023-04-03T05:32:26;5.50;99.90
25718;DHT22;13574;52.040;5.692;2023-04-03T05:34:53;5.50;99.90
25718;DHT22;13574;52.040;5.692;2023-04-03T05:37:19;5.50;99.90
25718;DHT22;13574;52.040;5.692;2023-04-03T05:39:45;5.50;99.90
25718;DHT22;13574;52.040;5.692;2023-04-03T05:42:11;5.60;99.90
25718;DHT22;13574;52.040;5.692;2023-04-03T05:44:38;5.50;99.90
25718;DHT22;13574;52.040;5.692;2023-04-03T05:47:04;5.30;99.90
25718;DHT22;13574;52.040;5.692;2023-04-03T05:49:30;5.40;99.90
25718;DHT22;13574;52.040;5.692;2023-04-03T05:51:55;5.20;99.90
25718;DHT22;13574;52.040;5.692;2023-04-03T05:54:29;5.40;99.90
25718;DHT22;13574;52.040;5.692;2023-04-03T05:56:55;5.50;99.90
25718;DHT22;13574;52.040;5.692;2023-04-03T05:59:21;5.30;99.90
25718;DHT22;13574;52.040;5.692;2023-04-03T06:01:48;5.60;99.90
25718;DHT22;13574;52.040;5.692;2023-04-03T06:04:14;5.40;99.90
25718;DHT22;13574;52.040;5.692;2023-04-03T06:06:51;5.40;99.90
25718;DHT22;13574;52.040;5.692;2023-04-03T06:09:19;5.50;99.90
25718;DHT22;13574;52.040;5.692;2023-04-03T06:11:46;5.70;99.90
25718;DHT22;13574;52.040;5.692;2023-04-03T06:14:12;5.70;99.90
25718;DHT22;13574;52.040;5.692;2023-04-03T06:16:38;5.60;99.90
25718;DHT22;13574;52.040;5.692;2023-04-03T06:19:05;5.50;99.90
25718;DHT22;13574;52.040;5.692;2023-04-03T06:21:31;5.60;99.90
25718;DHT22;13574;52.040;5.692;2023-04-03T06:23:57;5.80;99.90
25718;DHT22;13574;52.040;5.692;2023-04-03T06:26:22;5.60;99.90
25718;DHT22;13574;52.040;5.692;2023-04-03T06:28:48;5.70;99.90
25718;DHT22;13574;52.040;5.692;2023-04-03T06:31:14;5.70;99.90
25718;DHT22;13574;52.040;5.692;2023-04-03T06:33:40;5.60;99.90
25718;DHT22;13574;52.040;5.692;2023-04-03T06:36:06;5.70;99.90
25718;DHT22;13574;52.040;5.692;2023-04-03T06:38:34;5.50;99.90
25718;DHT22;13574;52.040;5.692;2023-04-03T06:41:00;5.70;99.90
25718;DHT22;13574;52.040;5.692;2023-04-03T06:43:25;5.50;99.90
25718;DHT22;13574;52.040;5.692;2023-04-03T06:45:51;5.50;99.90
25718;DHT22;13574;52.040;5.692;2023-04-03T06:48:17;5.50;99.90
25718;DHT22;13574;52.040;5.692;2023-04-03T06:50:43;5.60;99.90
25718;DHT22;13574;52.040;5.692;2023-04-03T06:53:10;5.80;99.90
25718;DHT22;13574;52.040;5.692;2023-04-03T06:55:36;5.70;99.90
25718;DHT22;13574;52.040;5.692;2023-04-03T06:58:02;5.30;99.90
25718;DHT22;13574;52.040;5.692;2023-04-03T07:00:29;5.40;99.90
25718;DHT22;13574;52.040;5.692;2023-04-03T07:02:55;5.30;99.90
25718;DHT22;13574;52.040;5.692;2023-04-03T07:05:23;5.20;99.90
25718;DHT22;13574;52.040;5.692;2023-04-03T07:07:49;5.30;99.90
25718;DHT22;13574;52.040;5.692;2023-04-03T07:10:15;5.50;99.90
25718;DHT22;13574;52.040;5.692;2023-04-03T07:12:41;5.80;99.90
25718;DHT22;13574;52.040;5.692;2023-04-03T07:15:08;6.30;99.90
25718;DHT22;13574;52.040;5.692;2023-04-03T07:17:34;6.40;99.90
25718;DHT22;13574;52.040;5.692;2023-04-03T07:20:01;6.20;99.90
25718;DHT22;13574;52.040;5.692;2023-04-03T07:22:27;6.40;99.90
25718;DHT22;13574;52.040;5.692;2023-04-03T07:24:53;6.50;99.90
25718;DHT22;13574;52.040;5.692;2023-04-03T07:27:19;6.40;99.90
25718;DHT22;13574;52.040;5.692;2023-04-03T07:29:45;6.60;99.90
25718;DHT22;13574;52.040;5.692;2023-04-03T07:32:14;6.30;99.90
25718;DHT22;13574;52.040;5.692;2023-04-03T07:34:40;6.40;99.90
25718;DHT22;13574;52.040;5.692;2023-04-03T07:37:06;6.60;99.90
25718;DHT22;13574;52.040;5.692;2023-04-03T07:39:32;6.50;99.90
25718;DHT22;13574;52.040;5.692;2023-04-03T07:41:58;6.50;99.90
25718;DHT22;13574;52.040;5.692;2023-04-03T07:44:24;6.50;99.90
25718;DHT22;13574;52.040;5.692;2023-04-03T07:46:50;6.50;99.90
25718;DHT22;13574;52.040;5.692;2023-04-03T07:49:16;6.50;99.90
25718;DHT22;13574;52.040;5.692;2023-04-03T07:51:44;7.00;99.90
25718;DHT22;13574;52.040;5.692;2023-04-03T07:54:09;6.90;99.90
25718;DHT22;13574;52.040;5.692;2023-04-03T07:56:35;6.80;99.90
25718;DHT22;13574;52.040;5.692;2023-04-03T07:59:01;6.90;99.90
25718;DHT22;13574;52.040;5.692;2023-04-03T08:01:27;7.00;99.90
25718;DHT22;13574;52.040;5.692;2023-04-03T08:03:53;7.00;99.90
25718;DHT22;13574;52.040;5.692;2023-04-03T08:06:18;6.90;99.90
25718;DHT22;13574;52.040;5.692;2023-04-03T08:08:44;7.00;99.90
25718;DHT22;13574;52.040;5.692;2023-04-03T08:11:11;7.20;99.90
25718;DHT22;13574;52.040;5.692;2023-04-03T08:13:37;7.50;99.90
25718;DHT22;13574;52.040;5.692;2023-04-03T08:16:16;7.90;99.90
25718;DHT22;13574;52.040;5.692;2023-04-03T08:18:42;8.80;99.60
25718;DHT22;13574;52.040;5.692;2023-04-03T08:21:10;10.30;97.50
25718;DHT22;13574;52.040;5.692;2023-04-03T08:23:36;11.50;96.30
25718;DHT22;13574;52.040;5.692;2023-04-03T08:26:10;12.80;92.90
25718;DHT22;13574;52.040;5.692;2023-04-03T08:28:35;12.70;92.00
25718;DHT22;13574;52.040;5.692;2023-04-03T08:31:06;11.80;92.90
25718;DHT22;13574;52.040;5.692;2023-04-03T08:33:33;10.40;92.10
25718;DHT22;13574;52.040;5.692;2023-04-03T08:36:02;10.10;93.80
25718;DHT22;13574;52.040;5.692;2023-04-03T08:38:28;9.90;93.90
25718;DHT22;13574;52.040;5.692;2023-04-03T08:41:06;9.70;94.00
25718;DHT22;13574;52.040;5.692;2023-04-03T08:46:11;9.20;94.00
25718;DHT22;13574;52.040;5.692;2023-04-03T08:48:43;8.80;93.80
25718;DHT22;13574;52.040;5.692;2023-04-03T08:51:20;8.40;93.10
25718;DHT22;13574;52.040;5.692;2023-04-03T08:54:06;8.30;93.70
25718;DHT22;13574;52.040;5.692;2023-04-03T08:56:40;8.30;94.10
25718;DHT22;13574;52.040;5.692;2023-04-03T08:59:11;8.50;92.90
25718;DHT22;13574;52.040;5.692;2023-04-03T09:01:40;8.40;93.50
25718;DHT22;13574;52.040;5.692;2023-04-03T09:04:14;8.50;92.10
25718;DHT22;13574;52.040;5.692;2023-04-03T09:06:43;8.50;91.30
25718;DHT22;13574;52.040;5.692;2023-04-03T09:09:15;8.50;91.90
25718;DHT22;13574;52.040;5.692;2023-04-03T09:16:54;8.70;90.10
25718;DHT22;13574;52.040;5.692;2023-04-03T09:22:28;8.70;88.80
25718;DHT22;13574;52.040;5.692;2023-04-03T09:25:17;9.20;89.20
25718;DHT22;13574;52.040;5.692;2023-04-03T09:27:43;9.40;90.50
25718;DHT22;13574;52.040;5.692;2023-04-03T09:30:23;9.10;84.90
25718;DHT22;13574;52.040;5.692;2023-04-03T09:32:52;9.00;86.70
25718;DHT22;13574;52.040;5.692;2023-04-03T09:35:25;8.90;87.40
25718;DHT22;13574;52.040;5.692;2023-04-03T09:37:53;9.10;85.60
25718;DHT22;13574;52.040;5.692;2023-04-03T09:42:51;9.20;83.90
25718;DHT22;13574;52.040;5.692;2023-04-03T09:45:36;9.50;84.00
25718;DHT22;13574;52.040;5.692;2023-04-03T09:50:33;9.40;84.10
25718;DHT22;13574;52.040;5.692;2023-04-03T09:53:05;9.40;81.50
25718;DHT22;13574;52.040;5.692;2023-04-03T09:55:31;9.20;82.00
25718;DHT22;13574;52.040;5.692;2023-04-03T09:58:02;9.30;82.80
25718;DHT22;13574;52.040;5.692;2023-04-03T10:00:35;9.40;83.30
25718;DHT22;13574;52.040;5.692;2023-04-03T10:03:02;9.50;83.20
25718;DHT22;13574;52.040;5.692;2023-04-03T10:10:45;9.20;78.70
25718;DHT22;13574;52.040;5.692;2023-04-03T10:13:21;9.30;81.20
25718;DHT22;13574;52.040;5.692;2023-04-03T10:15:51;9.30;79.50
25718;DHT22;13574;52.040;5.692;2023-04-03T10:18:40;9.40;81.80
25718;DHT22;13574;52.040;5.692;2023-04-03T10:21:32;9.50;79.50
25718;DHT22;13574;52.040;5.692;2023-04-03T10:24:21;9.50;78.70
25718;DHT22;13574;52.040;5.692;2023-04-03T10:27:44;9.80;82.70
25718;DHT22;13574;52.040;5.692;2023-04-03T10:30:29;9.90;81.10
25718;DHT22;13574;52.040;5.692;2023-04-03T10:36:06;10.20;83.40
25718;DHT22;13574;52.040;5.692;2023-04-03T10:41:34;10.10;85.50
25718;DHT22;13574;52.040;5.692;2023-04-03T10:46:42;9.70;85.00
25718;DHT22;13574;52.040;5.692;2023-04-03T10:51:48;9.60;86.50
25718;DHT22;13574;52.040;5.692;2023-04-03T10:54:25;9.80;87.20
25718;DHT22;13574;52.040;5.692;2023-04-03T10:57:12;9.90;87.00
25718;DHT22;13574;52.040;5.692;2023-04-03T10:59:43;9.90;87.20
25718;DHT22;13574;52.040;5.692;2023-04-03T11:02:24;9.90;88.60
25718;DHT22;13574;52.040;5.692;2023-04-03T11:04:59;10.00;87.50
25718;DHT22;13574;52.040;5.692;2023-04-03T11:07:29;9.80;89.60
25718;DHT22;13574;52.040;5.692;2023-04-03T11:10:03;10.00;87.40
25718;DHT22;13574;52.040;5.692;2023-04-03T11:12:46;9.80;87.40
25718;DHT22;13574;52.040;5.692;2023-04-03T11:15:19;9.80;87.00
25718;DHT22;13574;52.040;5.692;2023-04-03T11:17:54;9.80;87.80
25718;DHT22;13574;52.040;5.692;2023-04-03T11:20:30;10.00;89.10
25718;DHT22;13574;52.040;5.692;2023-04-03T11:23:22;10.30;86.80
25718;DHT22;13574;52.040;5.692;2023-04-03T11:25:51;10.60;88.60
25718;DHT22;13574;52.040;5.692;2023-04-03T11:28:17;10.50;87.80
25718;DHT22;13574;52.040;5.692;2023-04-03T11:31:13;10.90;88.00
25718;DHT22;13574;52.040;5.692;2023-04-03T11:36:25;11.00;86.50
25718;DHT22;13574;52.040;5.692;2023-04-03T11:38:58;11.40;85.00
25718;DHT22;13574;52.040;5.692;2023-04-03T11:41:29;11.20;85.00
25718;DHT22;13574;52.040;5.692;2023-04-03T11:44:12;10.70;84.50
25718;DHT22;13574;52.040;5.692;2023-04-03T11:46:58;10.70;88.10
25718;DHT22;13574;52.040;5.692;2023-04-03T11:50:25;10.60;86.80
25718;DHT22;13574;52.040;5.692;2023-04-03T12:16:26;11.00;84.60
25718;DHT22;13574;52.040;5.692;2023-04-03T12:22:04;11.40;86.40
25718;DHT22;13574;52.040;5.692;2023-04-03T12:40:17;10.70;85.80
25718;DHT22;13574;52.040;5.692;2023-04-03T12:45:49;10.80;85.50
25718;DHT22;13574;52.040;5.692;2023-04-03T12:48:17;10.70;86.90
25718;DHT22;13574;52.040;5.692;2023-04-03T12:50:46;10.80;85.50
25718;DHT22;13574;52.040;5.692;2023-04-03T12:53:22;10.70;86.70
25718;DHT22;13574;52.040;5.692;2023-04-03T12:56:20;10.80;87.00
25718;DHT22;13574;52.040;5.692;2023-04-03T12:58:47;11.10;87.40
25718;DHT22;13574;52.040;5.692;2023-04-03T13:01:16;11.00;87.90
25718;DHT22;13574;52.040;5.692;2023-04-03T13:03:45;11.10;87.90
25718;DHT22;13574;52.040;5.692;2023-04-03T13:06:22;10.90;86.70
25718;DHT22;13574;52.040;5.692;2023-04-03T13:08:51;11.00;86.90
25718;DHT22;13574;52.040;5.692;2023-04-03T13:11:17;11.10;85.60
25718;DHT22;13574;52.040;5.692;2023-04-03T13:14:03;11.20;86.60
25718;DHT22;13574;52.040;5.692;2023-04-03T13:16:31;11.30;84.60
25718;DHT22;13574;52.040;5.692;2023-04-03T13:18:58;11.00;85.50
25718;DHT22;13574;52.040;5.692;2023-04-03T13:21:29;10.80;89.20
25718;DHT22;13574;52.040;5.692;2023-04-03T13:24:01;11.20;88.40
25718;DHT22;13574;52.040;5.692;2023-04-03T13:26:30;11.50;86.80
25718;DHT22;13574;52.040;5.692;2023-04-03T13:29:05;11.50;84.60
25718;DHT22;13574;52.040;5.692;2023-04-03T13:31:34;11.70;86.70
25718;DHT22;13574;52.040;5.692;2023-04-03T13:36:42;11.50;86.10
25718;DHT22;13574;52.040;5.692;2023-04-03T13:41:43;11.30;86.30
25718;DHT22;13574;52.040;5.692;2023-04-03T13:46:49;11.30;87.80
25718;DHT22;13574;52.040;5.692;2023-04-03T13:49:30;11.10;87.30
25718;DHT22;13574;52.040;5.692;2023-04-03T13:51:56;11.40;86.00
25718;DHT22;13574;52.040;5.692;2023-04-03T13:54:36;11.30;85.40
25718;DHT22;13574;52.040;5.692;2023-04-03T13:57:10;11.10;86.80
25718;DHT22;13574;52.040;5.692;2023-04-03T13:59:37;11.40;85.80
25718;DHT22;13574;52.040;5.692;2023-04-03T14:04:30;11.00;87.40
25718;DHT22;13574;52.040;5.692;2023-04-03T14:06:57;11.20;87.00
25718;DHT22;13574;52.040;5.692;2023-04-03T14:09:25;11.60;88.20
25718;DHT22;13574;52.040;5.692;2023-04-03T14:11:54;11.50;86.30
25718;DHT22;13574;52.040;5.692;2023-04-03T14:14:23;11.70;87.30
25718;DHT22;13574;52.040;5.692;2023-04-03T14:16:55;11.70;86.40
25718;DHT22;13574;52.040;5.692;2023-04-03T14:21:54;11.40;87.40
25718;DHT22;13574;52.040;5.692;2023-04-03T14:24:20;11.50;86.40
25718;DHT22;13574;52.040;5.692;2023-04-03T14:26:48;11.60;87.40
25718;DHT22;13574;52.040;5.692;2023-04-03T14:29:14;11.70;89.10
25718;DHT22;13574;52.040;5.692;2023-04-03T14:31:42;11.70;87.40
25718;DHT22;13574;52.040;5.692;2023-04-03T14:34:10;11.50;89.40
25718;DHT22;13574;52.040;5.692;2023-04-03T14:36:37;11.70;88.90
25718;DHT22;13574;52.040;5.692;2023-04-03T14:39:05;11.80;88.70
25718;DHT22;13574;52.040;5.692;2023-04-03T14:41:31;12.00;87.40
25718;DHT22;13574;52.040;5.692;2023-04-03T14:43:57;11.70;87.30
25718;DHT22;13574;52.040;5.692;2023-04-03T14:46:35;11.60;87.50
25718;DHT22;13574;52.040;5.692;2023-04-03T14:49:02;11.70;89.90
25718;DHT22;13574;52.040;5.692;2023-04-03T14:51:28;11.70;87.90
25718;DHT22;13574;52.040;5.692;2023-04-03T14:53:54;11.60;87.60
25718;DHT22;13574;52.040;5.692;2023-04-03T14:56:29;11.40;88.20
25718;DHT22;13574;52.040;5.692;2023-04-03T14:58:59;11.40;89.50
25718;DHT22;13574;52.040;5.692;2023-04-03T15:01:27;11.30;89.60
25718;DHT22;13574;52.040;5.692;2023-04-03T15:03:53;11.50;89.40
25718;DHT22;13574;52.040;5.692;2023-04-03T15:06:20;11.60;88.30
25718;DHT22;13574;52.040;5.692;2023-04-03T15:08:47;11.40;88.90
25718;DHT22;13574;52.040;5.692;2023-04-03T15:11:14;11.50;89.60
25718;DHT22;13574;52.040;5.692;2023-04-03T15:13:40;11.40;88.90
25718;DHT22;13574;52.040;5.692;2023-04-03T15:16:16;11.00;89.00
25718;DHT22;13574;52.040;5.692;2023-04-03T15:18:42;10.90;89.00
25718;DHT22;13574;52.040;5.692;2023-04-03T15:21:08;10.90;90.20
25718;DHT22;13574;52.040;5.692;2023-04-03T15:23:34;10.80;90.40
25718;DHT22;13574;52.040;5.692;2023-04-03T15:26:00;10.70;90.40
25718;DHT22;13574;52.040;5.692;2023-04-03T15:28:41;10.70;90.80
25718;DHT22;13574;52.040;5.692;2023-04-03T15:31:07;10.60;90.40
25718;DHT22;13574;52.040;5.692;2023-04-03T15:33:34;10.70;90.60
25718;DHT22;13574;52.040;5.692;2023-04-03T15:36:01;10.80;90.90
25718;DHT22;13574;52.040;5.692;2023-04-03T15:38:27;11.00;90.80
25718;DHT22;13574;52.040;5.692;2023-04-03T15:40:54;11.20;90.80
25718;DHT22;13574;52.040;5.692;2023-04-03T15:43:23;11.30;90.70
25718;DHT22;13574;52.040;5.692;2023-04-03T15:45:50;11.30;91.00
25718;DHT22;13574;52.040;5.692;2023-04-03T15:48:18;11.30;91.00
25718;DHT22;13574;52.040;5.692;2023-04-03T15:50:44;11.10;91.00
25718;DHT22;13574;52.040;5.692;2023-04-03T15:53:10;11.00;91.40
25718;DHT22;13574;52.040;5.692;2023-04-03T15:55:36;11.10;91.40
25718;DHT22;13574;52.040;5.692;2023-04-03T15:58:03;11.00;91.50
25718;DHT22;13574;52.040;5.692;2023-04-03T16:00:30;11.10;91.20
25718;DHT22;13574;52.040;5.692;2023-04-03T16:03:08;11.00;91.70
25718;DHT22;13574;52.040;5.692;2023-04-03T16:05:37;11.10;90.90
25718;DHT22;13574;52.040;5.692;2023-04-03T16:08:04;10.80;91.30
25718;DHT22;13574;52.040;5.692;2023-04-03T16:10:30;10.70;91.50
25718;DHT22;13574;52.040;5.692;2023-04-03T16:12:56;10.80;91.50
25718;DHT22;13574;52.040;5.692;2023-04-03T16:15:23;11.00;90.90
25718;DHT22;13574;52.040;5.692;2023-04-03T16:17:53;10.70;91.50
25718;DHT22;13574;52.040;5.692;2023-04-03T16:23:43;10.70;91.10
25718;DHT22;13574;52.040;5.692;2023-04-03T16:26:41;10.40;91.80
25718;DHT22;13574;52.040;5.692;2023-04-03T16:29:57;10.40;91.90
25718;DHT22;13574;52.040;5.692;2023-04-03T16:32:32;10.50;91.90
25718;DHT22;13574;52.040;5.692;2023-04-03T16:35:04;10.70;91.90
25718;DHT22;13574;52.040;5.692;2023-04-03T16:37:35;10.60;91.70
25718;DHT22;13574;52.040;5.692;2023-04-03T16:40:06;10.50;91.90
25718;DHT22;13574;52.040;5.692;2023-04-03T16:42:34;10.50;92.00
25718;DHT22;13574;52.040;5.692;2023-04-03T16:45:07;10.60;92.00
25718;DHT22;13574;52.040;5.692;2023-04-03T16:47:33;10.50;92.10
25718;DHT22;13574;52.040;5.692;2023-04-03T16:50:02;10.40;92.10
25718;DHT22;13574;52.040;5.692;2023-04-03T16:52:28;9.90;92.60
25718;DHT22;13574;52.040;5.692;2023-04-03T16:54:54;10.30;92.10
25718;DHT22;13574;52.040;5.692;2023-04-03T16:57:28;10.20;92.40
25718;DHT22;13574;52.040;5.692;2023-04-03T16:59:54;10.30;92.20
25718;DHT22;13574;52.040;5.692;2023-04-03T17:02:27;10.30;92.40
25718;DHT22;13574;52.040;5.692;2023-04-03T17:04:57;10.20;92.10
25718;DHT22;13574;52.040;5.692;2023-04-03T17:07:24;10.10;92.10
25718;DHT22;13574;52.040;5.692;2023-04-03T17:09:50;10.20;92.20
25718;DHT22;13574;52.040;5.692;2023-04-03T17:12:17;10.00;91.80
25718;DHT22;13574;52.040;5.692;2023-04-03T17:14:43;10.10;92.30
25718;DHT22;13574;52.040;5.692;2023-04-03T17:17:20;10.30;92.30
25718;DHT22;13574;52.040;5.692;2023-04-03T17:19:46;10.50;92.20
25718;DHT22;13574;52.040;5.692;2023-04-03T17:22:18;10.60;91.70
25718;DHT22;13574;52.040;5.692;2023-04-03T17:24:47;10.00;92.40
25718;DHT22;13574;52.040;5.692;2023-04-03T17:27:13;10.10;92.10
25718;DHT22;13574;52.040;5.692;2023-04-03T17:29:39;10.20;92.70
25718;DHT22;13574;52.040;5.692;2023-04-03T17:32:04;10.30;92.10
25718;DHT22;13574;52.040;5.692;2023-04-03T17:34:30;10.30;92.20
25718;DHT22;13574;52.040;5.692;2023-04-03T17:36:58;10.20;92.60
25718;DHT22;13574;52.040;5.692;2023-04-03T17:39:23;10.00;93.00
25718;DHT22;13574;52.040;5.692;2023-04-03T17:41:49;10.10;92.70